Time;durP1;ratioP1;P1;durP2;ratioP2;P2;SDS_P1;SDS_P2;PMS_P1;PMS_P2;Temp;Humidity;BMP_temperature;BMP_pressure;BME280_temperature;BME280_humidity;BME280_pressure;Samples;Min_cycle;Max_cycle;Signal;HPM_P1;HPM_P2
2022/07/12 00:01:42;;;;;;;3.30;2.50;;;15.60;99.90;;;;;;5085690;28;20043;-65
2022/07/12 00:04:08;;;;;;;3.03;2.25;;;15.60;99.90;;;;;;5076095;28;20064;-65
2022/07/12 00:06:34;;;;;;;3.78;2.38;;;15.60;99.90;;;;;;5072956;28;20471;-65
2022/07/12 00:08:59;;;;;;;3.30;2.13;;;15.60;99.90;;;;;;5084030;28;20558;-65
2022/07/12 00:11:25;;;;;;;3.33;2.28;;;15.60;99.90;;;;;;5073199;28;20037;-65
2022/07/12 00:13:51;;;;;;;2.75;2.20;;;15.60;99.90;;;;;;5072546;28;20086;-65
2022/07/12 00:16:16;;;;;;;3.28;2.25;;;15.50;99.90;;;;;;5073761;28;20388;-65
2022/07/12 00:18:42;;;;;;;2.72;2.05;;;15.50;99.90;;;;;;5071502;28;20047;-65
2022/07/12 00:21:08;;;;;;;2.97;2.25;;;15.50;99.90;;;;;;5076052;28;20122;-66
2022/07/12 00:23:34;;;;;;;3.45;2.40;;;15.50;99.90;;;;;;5078035;28;20047;-65
2022/07/12 00:26:04;;;;;;;3.05;2.38;;;15.50;99.90;;;;;;5062286;28;20036;-62
2022/07/12 00:28:30;;;;;;;2.38;1.90;;;15.40;99.90;;;;;;5070690;28;20111;-65
2022/07/12 00:30:56;;;;;;;1.60;1.50;;;15.40;99.90;;;;;;5069625;28;20029;-64
2022/07/12 00:33:21;;;;;;;1.67;1.55;;;15.40;99.90;;;;;;5073691;28;20561;-65
2022/07/12 00:35:47;;;;;;;2.67;1.75;;;15.40;99.90;;;;;;5077027;28;20058;-65
2022/07/12 00:38:13;;;;;;;3.42;2.17;;;15.30;99.90;;;;;;5082924;28;20050;-65
2022/07/12 00:40:38;;;;;;;2.60;2.20;;;15.30;99.90;;;;;;5076862;28;20036;-64
2022/07/12 00:43:04;;;;;;;2.90;2.30;;;15.20;99.90;;;;;;5081465;28;20047;-65
2022/07/12 00:45:29;;;;;;;3.40;2.45;;;15.20;99.90;;;;;;5084969;28;20043;-65
2022/07/12 00:47:55;;;;;;;3.10;2.40;;;15.20;99.90;;;;;;5079077;28;20082;-65
2022/07/12 00:50:22;;;;;;;3.97;2.20;;;15.20;99.90;;;;;;5071237;28;20507;-65
2022/07/12 00:52:50;;;;;;;3.45;2.60;;;15.20;99.90;;;;;;5078957;28;20044;-65
2022/07/12 00:55:18;;;;;;;3.22;2.38;;;15.20;99.90;;;;;;5064992;28;20406;-65
2022/07/12 00:57:44;;;;;;;2.17;1.67;;;15.20;99.90;;;;;;5076353;28;20071;-66
2022/07/12 01:00:13;;;;;;;2.20;1.83;;;15.20;99.90;;;;;;5073126;28;20036;-65
2022/07/12 01:02:39;;;;;;;2.25;1.75;;;15.00;99.90;;;;;;5076121;28;20410;-65
2022/07/12 01:05:06;;;;;;;2.80;1.90;;;15.00;99.90;;;;;;5070596;28;20032;-65
2022/07/12 01:07:32;;;;;;;2.85;1.67;;;15.00;99.90;;;;;;5062158;28;20044;-65
2022/07/12 01:09:58;;;;;;;6.32;1.85;;;14.90;99.90;;;;;;5070853;28;20067;-65
2022/07/12 01:12:25;;;;;;;1.40;1.30;;;14.90;99.90;;;;;;5072409;28;20036;-66
2022/07/12 01:14:51;;;;;;;2.15;1.27;;;14.80;99.90;;;;;;5083867;28;20036;-65
2022/07/12 01:17:20;;;;;;;1.60;1.50;;;14.90;99.90;;;;;;5069041;28;20037;-65
2022/07/12 01:19:47;;;;;;;2.40;1.70;;;14.80;99.90;;;;;;5073832;28;20036;-65
2022/07/12 01:22:16;;;;;;;1.40;1.30;;;14.70;99.90;;;;;;5070776;28;20040;-65
2022/07/12 01:24:42;;;;;;;1.58;1.30;;;14.70;99.90;;;;;;5074407;28;20032;-65
2022/07/12 01:27:08;;;;;;;3.20;1.70;;;14.70;99.90;;;;;;5078488;28;20039;-66
2022/07/12 01:29:35;;;;;;;4.53;1.63;;;14.60;99.90;;;;;;5081792;28;20474;-65
2022/07/12 01:35:02;;;;;;;2.40;1.65;;;14.60;99.90;;;;;;5077967;28;20406;-64
2022/07/12 01:37:40;;;;;;;1.80;1.50;;;14.60;99.90;;;;;;5082351;28;20028;-63
2022/07/12 01:40:08;;;;;;;1.90;1.60;;;14.50;99.90;;;;;;5075019;28;20028;-66
2022/07/12 01:42:33;;;;;;;2.47;1.48;;;14.50;99.90;;;;;;5075319;28;20078;-66
2022/07/12 01:44:59;;;;;;;2.55;1.50;;;14.50;99.90;;;;;;5082358;28;20440;-65
2022/07/12 01:47:31;;;;;;;3.13;1.70;;;14.50;99.90;;;;;;5080097;28;20523;-65
2022/07/12 01:49:57;;;;;;;3.13;1.75;;;14.50;99.90;;;;;;5086566;28;20028;-64
2022/07/12 01:52:23;;;;;;;1.60;1.30;;;14.40;99.90;;;;;;5070216;28;20051;-65
2022/07/12 01:54:49;;;;;;;1.92;1.40;;;14.40;99.90;;;;;;5076580;28;20036;-65
2022/07/12 01:57:15;;;;;;;0.90;0.90;;;14.30;99.90;;;;;;5077760;28;20562;-61
2022/07/12 01:59:41;;;;;;;2.47;1.40;;;14.30;99.90;;;;;;5078637;28;20040;-65
2022/07/12 02:02:07;;;;;;;1.73;1.45;;;14.20;99.90;;;;;;5078506;28;20113;-65
2022/07/12 02:04:33;;;;;;;4.95;1.60;;;14.20;99.90;;;;;;5070408;28;20475;-63
2022/07/12 02:06:59;;;;;;;2.05;1.77;;;14.20;99.90;;;;;;5074536;28;20081;-65
2022/07/12 02:09:24;;;;;;;1.83;1.63;;;14.20;99.90;;;;;;5082574;28;20522;-65
2022/07/12 02:11:50;;;;;;;2.72;1.85;;;14.10;99.90;;;;;;5071122;28;20177;-65
2022/07/12 02:14:16;;;;;;;2.00;1.60;;;14.10;99.90;;;;;;5081369;28;20078;-66
2022/07/12 02:16:43;;;;;;;2.80;1.85;;;14.10;99.90;;;;;;5070854;28;20028;-65
2022/07/12 02:19:10;;;;;;;3.08;2.40;;;14.10;99.90;;;;;;5079545;28;20036;-65
2022/07/12 02:21:36;;;;;;;3.67;2.60;;;14.10;99.90;;;;;;5082363;28;20040;-65
2022/07/12 02:24:03;;;;;;;3.55;2.30;;;14.10;99.90;;;;;;5078229;28;20036;-65
2022/07/12 02:26:28;;;;;;;3.20;2.33;;;14.10;99.90;;;;;;5079828;28;20124;-65
2022/07/12 02:28:54;;;;;;;3.05;2.15;;;14.10;99.90;;;;;;5064059;28;20066;-65
2022/07/12 02:31:20;;;;;;;3.25;2.15;;;14.10;99.90;;;;;;5068041;28;20040;-65
2022/07/12 02:33:45;;;;;;;2.42;1.92;;;14.00;99.90;;;;;;5084465;28;20406;-64
2022/07/12 02:36:11;;;;;;;2.38;1.95;;;14.00;99.90;;;;;;5074684;28;20044;-65
2022/07/12 02:38:37;;;;;;;2.97;2.10;;;14.00;99.90;;;;;;5076503;28;20044;-66
2022/07/12 02:41:03;;;;;;;2.45;1.98;;;13.90;99.90;;;;;;5062066;28;20041;-65
2022/07/12 02:43:30;;;;;;;4.07;2.00;;;13.90;99.90;;;;;;5063988;28;20535;-65
2022/07/12 02:46:05;;;;;;;2.58;1.90;;;13.90;99.90;;;;;;5077656;28;20028;-65
2022/07/12 02:48:31;;;;;;;2.25;1.80;;;13.90;99.90;;;;;;5066711;28;20036;-65
2022/07/12 02:50:56;;;;;;;2.22;1.80;;;13.90;99.90;;;;;;5081651;28;20536;-65
2022/07/12 02:53:22;;;;;;;2.70;1.63;;;13.90;99.90;;;;;;5080859;28;20040;-66
2022/07/12 02:55:48;;;;;;;3.53;1.80;;;13.90;99.90;;;;;;5087474;28;20573;-65
2022/07/12 02:58:14;;;;;;;3.90;1.75;;;13.80;99.90;;;;;;5086325;28;20150;-65
2022/07/12 03:00:41;;;;;;;2.50;1.65;;;13.80;99.90;;;;;;5079592;28;20032;-66
2022/07/12 03:03:07;;;;;;;2.63;1.70;;;13.80;99.90;;;;;;5068633;28;20474;-64
2022/07/12 03:05:34;;;;;;;2.25;1.60;;;13.80;99.90;;;;;;5084696;28;20032;-65
2022/07/12 03:08:00;;;;;;;1.67;1.48;;;13.70;99.90;;;;;;5084200;28;20032;-65
2022/07/12 03:10:26;;;;;;;2.28;1.30;;;13.80;99.90;;;;;;5061051;22;20128;-74
2022/07/12 03:12:52;;;;;;;2.63;1.35;;;13.70;99.90;;;;;;5029975;28;20137;-75
2022/07/12 03:15:17;;;;;;;1.45;1.33;;;13.80;99.90;;;;;;5032743;28;20615;-74
2022/07/12 03:17:43;;;;;;;1.35;1.20;;;13.70;99.90;;;;;;5032784;28;20045;-74
2022/07/12 03:20:14;;;;;;;1.80;1.20;;;13.60;99.90;;;;;;5034172;28;20049;-74
2022/07/12 03:22:40;;;;;;;1.15;1.00;;;13.60;99.90;;;;;;5032730;28;20050;-74
2022/07/12 03:25:07;;;;;;;2.10;0.80;;;13.60;99.90;;;;;;5033022;28;20079;-74
2022/07/12 03:27:33;;;;;;;1.98;1.05;;;13.60;99.90;;;;;;5033783;28;20567;-74
2022/07/12 03:29:59;;;;;;;1.17;0.95;;;13.50;99.90;;;;;;5032911;28;20049;-74
2022/07/12 03:32:25;;;;;;;1.23;0.90;;;13.60;99.90;;;;;;5032694;28;20037;-74
2022/07/12 03:34:51;;;;;;;2.10;0.85;;;13.50;99.90;;;;;;5032793;28;20040;-74
2022/07/12 03:37:16;;;;;;;1.02;0.93;;;13.60;99.90;;;;;;5032563;28;20497;-74
2022/07/12 03:39:42;;;;;;;0.88;0.77;;;13.60;99.90;;;;;;5032526;28;20036;-74
2022/07/12 03:42:07;;;;;;;2.22;1.15;;;13.50;99.90;;;;;;5032261;28;20045;-74
2022/07/12 03:44:33;;;;;;;1.27;1.05;;;13.50;99.90;;;;;;5032429;28;20125;-74
2022/07/12 03:46:59;;;;;;;1.10;1.00;;;13.50;99.90;;;;;;5032422;28;20052;-76
2022/07/12 03:49:25;;;;;;;4.50;1.10;;;13.50;99.90;;;;;;5031681;28;20067;-74
2022/07/12 03:51:51;;;;;;;1.50;1.00;;;13.50;99.90;;;;;;5032838;28;20037;-74
2022/07/12 03:54:16;;;;;;;1.48;1.10;;;13.50;99.90;;;;;;5014020;28;20068;-74
2022/07/12 03:59:27;;;;;;;1.25;1.10;;;13.60;99.90;;;;;;5024952;28;20469;-74
2022/07/12 04:01:52;;;;;;;1.20;1.10;;;13.60;99.90;;;;;;5030723;28;20120;-74
2022/07/12 04:04:18;;;;;;;2.72;1.25;;;13.50;99.90;;;;;;5032383;28;20075;-74
2022/07/12 04:06:44;;;;;;;1.30;1.10;;;13.50;99.90;;;;;;5031811;28;22927;-74
2022/07/12 04:09:09;;;;;;;0.98;0.98;;;13.50;99.90;;;;;;5031775;28;20087;-74
2022/07/12 04:11:35;;;;;;;3.67;1.13;;;13.50;99.90;;;;;;5031171;28;20054;-74
2022/07/12 04:14:00;;;;;;;2.35;1.30;;;13.60;99.90;;;;;;5028997;28;20124;-74
2022/07/12 04:16:27;;;;;;;2.38;1.20;;;13.50;99.90;;;;;;5032032;28;20493;-74
2022/07/12 04:18:53;;;;;;;2.03;1.20;;;13.60;99.90;;;;;;5031252;28;20112;-74
2022/07/12 04:21:19;;;;;;;1.80;1.20;;;13.50;99.90;;;;;;5015423;28;20045;-74
2022/07/12 04:23:45;;;;;;;1.30;1.20;;;13.60;99.90;;;;;;5031831;28;20124;-74
2022/07/12 04:26:10;;;;;;;1.38;1.20;;;13.50;99.90;;;;;;5031646;28;20072;-74
2022/07/12 04:28:36;;;;;;;4.10;1.60;;;13.50;99.90;;;;;;5030747;28;20042;-74
2022/07/12 04:31:02;;;;;;;1.58;1.48;;;13.60;99.90;;;;;;5031595;28;20120;-74
2022/07/12 04:33:28;;;;;;;2.80;1.92;;;13.60;99.90;;;;;;5031750;28;20497;-74
2022/07/12 04:35:53;;;;;;;3.55;2.20;;;13.70;99.90;;;;;;5031505;28;20041;-74
2022/07/12 04:38:19;;;;;;;4.72;2.70;;;13.70;99.90;;;;;;5031373;28;20554;-74
2022/07/12 04:40:45;;;;;;;3.10;1.92;;;13.70;99.90;;;;;;5031168;28;20159;-74
2022/07/12 04:43:10;;;;;;;4.78;2.50;;;13.80;99.90;;;;;;5031487;28;20069;-74
2022/07/12 04:45:36;;;;;;;2.10;1.77;;;13.80;99.90;;;;;;5030998;28;20481;-74
2022/07/12 04:48:02;;;;;;;2.90;1.98;;;13.80;99.90;;;;;;5023578;28;20038;-74
2022/07/12 04:50:27;;;;;;;2.20;1.63;;;13.80;99.90;;;;;;5031059;28;20036;-74
2022/07/12 04:52:53;;;;;;;2.47;1.65;;;13.80;99.90;;;;;;5031331;28;20152;-74
2022/07/12 04:55:19;;;;;;;1.98;1.77;;;13.90;99.90;;;;;;5032470;28;20033;-76
2022/07/12 04:57:44;;;;;;;2.35;1.80;;;13.80;99.90;;;;;;5030561;28;20378;-76
2022/07/12 05:00:10;;;;;;;2.97;1.75;;;13.80;99.90;;;;;;5013253;28;20121;-74
2022/07/12 05:02:36;;;;;;;2.47;1.98;;;13.80;99.90;;;;;;5029871;28;20041;-74
2022/07/12 05:05:03;;;;;;;3.40;2.40;;;13.90;99.90;;;;;;5031128;28;20358;-74
2022/07/12 05:07:28;;;;;;;4.15;2.60;;;13.90;99.90;;;;;;5013883;28;20109;-74
2022/07/12 05:09:54;;;;;;;4.80;3.00;;;13.90;99.90;;;;;;5008510;28;20141;-74
2022/07/12 05:12:20;;;;;;;5.00;2.90;;;13.90;99.90;;;;;;5013930;28;20119;-74
2022/07/12 05:14:45;;;;;;;3.78;3.00;;;14.00;99.90;;;;;;5013597;28;20056;-74
2022/07/12 05:17:11;;;;;;;3.97;3.10;;;14.10;99.90;;;;;;5030476;28;20132;-74
2022/07/12 05:19:37;;;;;;;4.40;3.40;;;14.10;99.90;;;;;;5030675;28;20041;-74
2022/07/12 05:22:03;;;;;;;4.90;3.55;;;14.20;99.90;;;;;;5024361;28;20038;-74
2022/07/12 05:24:29;;;;;;;5.97;3.30;;;14.20;99.90;;;;;;5030423;28;20038;-74
2022/07/12 05:26:54;;;;;;;5.88;3.63;;;14.30;99.90;;;;;;5030846;28;20042;-74
2022/07/12 05:29:20;;;;;;;5.28;3.85;;;14.40;99.90;;;;;;5030159;28;20036;-74
2022/07/12 05:31:46;;;;;;;4.95;3.80;;;14.50;99.90;;;;;;5011745;28;20052;-74
2022/07/12 05:34:12;;;;;;;5.22;3.53;;;14.70;99.90;;;;;;5030022;28;20405;-74
2022/07/12 05:36:38;;;;;;;5.78;3.95;;;14.70;99.90;;;;;;5034686;28;20076;-74
2022/07/12 05:39:04;;;;;;;5.95;4.40;;;14.80;99.90;;;;;;5029814;28;20041;-76
2022/07/12 05:41:29;;;;;;;7.25;5.03;;;15.00;99.90;;;;;;5027719;28;20045;-76
2022/07/12 05:43:55;;;;;;;4.90;3.83;;;15.10;99.90;;;;;;5030077;28;20036;-74
2022/07/12 05:46:20;;;;;;;5.03;3.80;;;15.20;99.90;;;;;;5030362;28;20041;-75
2022/07/12 05:48:46;;;;;;;6.97;4.60;;;15.20;99.90;;;;;;5031281;28;20101;-74
2022/07/12 05:53:56;;;;;;;7.97;4.93;;;15.40;99.90;;;;;;5029476;28;20107;-74
2022/07/12 05:56:21;;;;;;;8.48;5.55;;;15.50;99.90;;;;;;5030259;28;20065;-75
2022/07/12 05:58:47;;;;;;;5.82;4.55;;;15.60;99.90;;;;;;5031363;28;20114;-74
2022/07/12 06:01:13;;;;;;;6.25;5.38;;;15.70;99.90;;;;;;5029349;28;20138;-74
2022/07/12 06:03:38;;;;;;;8.35;5.50;;;15.70;99.90;;;;;;5027508;28;20064;-74
2022/07/12 06:06:04;;;;;;;6.25;4.50;;;15.80;99.90;;;;;;5031935;28;20037;-74
2022/07/12 06:08:30;;;;;;;6.28;4.63;;;15.90;99.90;;;;;;5029810;28;20408;-74
2022/07/12 06:10:55;;;;;;;6.32;5.03;;;16.00;99.90;;;;;;5029728;28;20037;-75
2022/07/12 06:13:21;;;;;;;6.38;5.03;;;16.00;99.90;;;;;;5030055;28;20557;-75
2022/07/12 06:15:47;;;;;;;6.60;5.60;;;16.10;99.90;;;;;;5031110;28;20124;-74
2022/07/12 06:18:13;;;;;;;7.85;5.68;;;16.20;99.90;;;;;;5029215;28;20069;-75
2022/07/12 06:20:38;;;;;;;6.90;5.78;;;16.10;99.90;;;;;;5022823;28;20092;-75
2022/07/12 06:23:04;;;;;;;7.60;5.43;;;16.30;99.90;;;;;;5034663;28;20033;-75
2022/07/12 06:25:30;;;;;;;6.50;5.40;;;16.30;99.90;;;;;;5029004;28;20569;-75
2022/07/12 06:27:55;;;;;;;6.35;5.18;;;16.30;99.90;;;;;;5027139;28;20052;-75
2022/07/12 06:30:21;;;;;;;7.90;6.20;;;16.40;99.90;;;;;;5012982;28;20045;-75
2022/07/12 06:32:48;;;;;;;7.82;5.78;;;16.40;99.90;;;;;;5027691;28;20045;-75
2022/07/12 06:35:14;;;;;;;7.03;5.30;;;16.50;99.90;;;;;;5021258;28;20513;-75
2022/07/12 06:37:41;;;;;;;9.02;5.15;;;16.50;99.90;;;;;;5023247;28;20091;-75
2022/07/12 06:40:07;;;;;;;6.68;5.53;;;16.50;99.90;;;;;;5028920;28;20091;-75
2022/07/12 06:42:34;;;;;;;6.88;5.50;;;16.60;99.90;;;;;;5026931;28;20084;-75
2022/07/12 06:45:00;;;;;;;8.38;5.63;;;16.60;99.90;;;;;;5027810;28;20116;-75
2022/07/12 06:47:26;;;;;;;6.60;5.22;;;16.70;99.90;;;;;;5027096;28;20034;-75
2022/07/12 06:49:51;;;;;;;8.80;5.18;;;16.70;99.90;;;;;;5027268;28;20037;-75
2022/07/12 06:52:17;;;;;;;8.48;5.75;;;16.70;99.90;;;;;;5024861;28;20072;-75
2022/07/12 06:54:43;;;;;;;6.63;5.68;;;16.70;99.90;;;;;;5029691;28;20041;-75
2022/07/12 06:57:09;;;;;;;7.80;5.55;;;16.70;99.90;;;;;;5025356;28;20187;-75
2022/07/12 06:59:35;;;;;;;8.23;6.03;;;16.70;99.90;;;;;;5029185;28;20048;-75
2022/07/12 07:02:00;;;;;;;9.63;5.70;;;16.70;99.90;;;;;;5022524;28;20057;-75
2022/07/12 07:04:26;;;;;;;6.68;5.68;;;16.70;99.90;;;;;;5029413;28;20115;-75
2022/07/12 07:06:52;;;;;;;8.23;5.97;;;16.80;99.90;;;;;;5030470;28;20412;-74
2022/07/12 07:09:18;;;;;;;9.45;5.72;;;16.80;99.90;;;;;;5024378;28;20038;-75
2022/07/12 07:11:44;;;;;;;6.97;6.28;;;16.90;99.90;;;;;;5029467;28;20037;-75
2022/07/12 07:14:10;;;;;;;7.47;6.68;;;16.90;99.90;;;;;;5028958;28;20052;-75
2022/07/12 07:16:35;;;;;;;8.52;6.75;;;16.90;99.90;;;;;;5029128;28;20045;-75
2022/07/12 07:19:02;;;;;;;7.10;5.95;;;17.00;99.90;;;;;;5029983;28;20038;-75
2022/07/12 07:21:28;;;;;;;9.18;6.53;;;17.20;99.90;;;;;;5029269;28;20068;-75
2022/07/12 07:23:53;;;;;;;7.22;6.03;;;17.20;99.90;;;;;;5029355;28;20029;-75
2022/07/12 07:26:19;;;;;;;8.05;6.80;;;17.30;99.90;;;;;;5029211;28;20042;-74
2022/07/12 07:31:29;;;;;;;7.82;6.93;;;17.50;99.90;;;;;;5021864;28;20092;-75
2022/07/12 07:33:55;;;;;;;8.30;6.25;;;17.50;99.90;;;;;;5029150;28;20030;-75
2022/07/12 07:36:20;;;;;;;9.88;6.63;;;17.60;99.90;;;;;;5022616;28;20096;-75
2022/07/12 07:38:46;;;;;;;8.02;6.57;;;17.70;99.90;;;;;;5032143;28;20117;-75
2022/07/12 07:41:11;;;;;;;7.30;6.53;;;17.80;99.90;;;;;;5033025;28;20033;-75
2022/07/12 07:43:37;;;;;;;8.98;6.65;;;17.80;99.90;;;;;;5032743;28;20029;-75
2022/07/12 07:46:03;;;;;;;7.68;6.63;;;17.90;99.90;;;;;;5032212;28;20055;-75
2022/07/12 07:48:29;;;;;;;8.25;6.80;;;17.90;99.90;;;;;;5032689;28;20490;-75
2022/07/12 07:50:54;;;;;;;7.35;6.25;;;18.00;99.90;;;;;;5032093;28;20477;-75
2022/07/12 07:53:20;;;;;;;6.45;5.75;;;18.10;99.90;;;;;;5024388;28;20040;-75
2022/07/12 07:55:46;;;;;;;9.48;6.20;;;18.20;99.90;;;;;;5028849;28;20136;-75
2022/07/12 07:58:14;;;;;;;7.25;6.35;;;18.20;99.90;;;;;;5030514;28;20187;-75
2022/07/12 08:00:40;;;;;;;6.97;5.93;;;18.40;99.90;;;;;;5033126;28;20393;-75
2022/07/12 08:03:06;;;;;;;6.78;5.88;;;18.50;99.90;;;;;;5032249;28;20033;-75
2022/07/12 08:05:31;;;;;;;7.22;6.50;;;18.60;99.90;;;;;;5032563;28;20056;-75
2022/07/12 08:07:57;;;;;;;7.25;6.13;;;18.70;99.90;;;;;;5031866;28;20033;-74
2022/07/12 08:10:24;;;;;;;6.68;5.63;;;18.80;99.90;;;;;;5025627;28;20449;-75
2022/07/12 08:12:49;;;;;;;7.18;5.18;;;18.90;99.90;;;;;;5030055;28;20135;-75
2022/07/12 08:15:15;;;;;;;6.25;4.90;;;19.00;99.90;;;;;;5032093;28;20132;-75
2022/07/12 08:17:41;;;;;;;6.35;4.60;;;19.10;99.90;;;;;;5030404;28;20041;-75
2022/07/12 08:20:07;;;;;;;6.05;5.20;;;19.20;99.90;;;;;;5032078;28;20146;-74
2022/07/12 08:22:32;;;;;;;5.40;4.75;;;19.40;99.90;;;;;;5027424;28;20043;-75
2022/07/12 08:24:58;;;;;;;5.93;5.00;;;19.50;99.90;;;;;;5031862;28;20034;-75
2022/07/12 08:27:24;;;;;;;6.65;4.70;;;19.70;99.90;;;;;;5031735;28;20523;-74
2022/07/12 08:29:50;;;;;;;4.60;3.72;;;19.80;99.90;;;;;;5031939;28;20049;-74
2022/07/12 08:32:15;;;;;;;5.85;4.30;;;20.10;99.90;;;;;;5032844;28;20512;-75
2022/07/12 08:34:42;;;;;;;5.15;3.63;;;20.20;99.90;;;;;;5030303;28;20173;-75
2022/07/12 08:37:08;;;;;;;5.10;3.65;;;20.40;99.90;;;;;;5024710;28;20413;-74
2022/07/12 08:39:33;;;;;;;3.95;3.55;;;20.60;99.90;;;;;;5031304;28;20037;-75
2022/07/12 08:41:59;;;;;;;5.07;3.75;;;20.70;99.90;;;;;;5031624;28;20395;-75
2022/07/12 08:44:25;;;;;;;4.68;3.88;;;20.70;99.90;;;;;;5031459;28;20041;-75
2022/07/12 08:46:52;;;;;;;4.38;3.40;;;20.90;99.90;;;;;;5031391;28;20424;-75
2022/07/12 08:49:18;;;;;;;5.13;3.70;;;21.10;99.90;;;;;;5030399;28;20041;-75
2022/07/12 08:51:44;;;;;;;4.82;3.13;;;21.20;99.90;;;;;;5031418;28;20045;-74
2022/07/12 08:54:12;;;;;;;5.63;3.15;;;21.30;99.90;;;;;;5029821;28;20054;-75
2022/07/12 08:56:40;;;;;;;5.43;3.42;;;21.40;99.90;;;;;;5030826;28;20049;-75
2022/07/12 08:59:13;;;;;;;6.10;3.70;;;21.50;99.90;;;;;;5018444;28;20046;-75
2022/07/12 09:01:42;;;;;;;4.70;3.70;;;21.60;99.90;;;;;;5022422;28;20116;-75
2022/07/12 09:04:12;;;;;;;5.13;3.45;;;21.70;99.90;;;;;;5029154;28;20041;-75
2022/07/12 09:06:37;;;;;;;5.95;3.55;;;21.80;99.90;;;;;;5014618;28;20116;-75
2022/07/12 09:09:03;;;;;;;3.25;2.95;;;22.00;99.90;;;;;;5057032;22;20132;-76
2022/07/12 09:11:29;;;;;;;6.20;3.42;;;22.10;99.90;;;;;;5002552;28;20125;-76
2022/07/12 09:13:56;;;;;;;4.93;3.60;;;22.40;99.90;;;;;;5000717;28;20477;-76
2022/07/12 09:16:26;;;;;;;4.88;3.10;;;22.50;99.90;;;;;;5018629;28;20029;-76
2022/07/12 09:19:11;;;;;;;3.50;2.92;;;22.70;99.90;;;;;;5026592;28;20045;-78
2022/07/12 09:21:36;;;;;;;3.95;2.75;;;22.90;99.90;;;;;;5016423;28;20129;-78
2022/07/12 09:24:02;;;;;;;3.70;3.28;;;23.00;99.90;;;;;;5003204;28;20111;-78
2022/07/12 09:26:32;;;;;;;5.97;3.72;;;23.20;99.90;;;;;;5026956;28;20091;-79
2022/07/12 09:29:06;;;;;;;3.70;3.03;;;23.40;99.90;;;;;;5026895;28;20040;-78
2022/07/12 09:37:18;;;;;;;3.97;3.35;;;23.30;99.90;;;;;;5043996;28;20045;-78
2022/07/12 09:39:44;;;;;;;4.50;3.33;;;23.30;99.90;;;;;;5020943;28;20045;-78
2022/07/12 09:42:12;;;;;;;5.88;3.40;;;23.20;99.90;;;;;;5009059;28;20072;-78
2022/07/12 09:44:41;;;;;;;3.30;3.00;;;23.20;99.90;;;;;;5048224;28;20037;-78
2022/07/12 09:47:13;;;;;;;4.20;3.13;;;23.30;99.90;;;;;;5017981;28;20124;-78
2022/07/12 09:49:40;;;;;;;3.90;3.50;;;23.50;99.90;;;;;;5026846;28;20041;-78
2022/07/12 09:52:10;;;;;;;4.97;3.88;;;23.50;99.90;;;;;;5015319;28;20144;-79
2022/07/12 09:54:41;;;;;;;4.55;2.90;;;23.60;99.90;;;;;;5020450;28;20048;-78
2022/07/12 09:57:17;;;;;;;5.25;2.83;;;23.50;99.90;;;;;;5005935;28;20061;-78
2022/07/12 09:59:44;;;;;;;3.35;2.85;;;23.60;99.90;;;;;;5026337;28;20051;-78
2022/07/12 10:02:15;;;;;;;2.85;2.47;;;23.80;99.90;;;;;;5021906;28;20418;-78
2022/07/12 10:04:41;;;;;;;3.55;3.00;;;24.00;99.90;;;;;;5007081;28;20028;-79
2022/07/12 10:07:08;;;;;;;3.15;2.67;;;24.10;99.90;;;;;;5016043;28;20087;-78
2022/07/12 10:09:36;;;;;;;5.13;3.10;;;24.10;99.90;;;;;;5019717;28;20443;-78
2022/07/12 10:12:03;;;;;;;4.28;3.20;;;24.20;99.90;;;;;;5026005;28;20032;-78
2022/07/12 10:14:29;;;;;;;5.68;3.70;;;24.30;99.90;;;;;;5032488;28;20034;-78
2022/07/12 10:16:58;;;;;;;5.78;3.17;;;24.40;99.90;;;;;;5018548;28;20076;-78
2022/07/12 10:19:32;;;;;;;2.83;2.55;;;24.70;99.90;;;;;;5006519;28;20032;-78
2022/07/12 10:21:59;;;;;;;3.83;3.22;;;24.80;99.90;;;;;;5017346;28;20041;-78
2022/07/12 10:24:44;;;;;;;4.90;3.17;;;24.80;99.90;;;;;;5028421;28;20032;-79
2022/07/12 10:27:13;;;;;;;3.88;2.85;;;25.00;99.90;;;;;;5008407;28;20037;-78
2022/07/12 10:29:43;;;;;;;3.65;2.10;;;25.20;99.90;;;;;;5005683;28;20030;-79
2022/07/12 10:32:27;;;;;;;3.15;1.70;;;25.50;99.90;;;;;;5021921;28;20044;-79
2022/07/12 10:35:07;;;;;;;2.15;1.70;;;25.60;99.80;;;;;;5011625;28;20048;-78
2022/07/12 10:37:34;;;;;;;2.10;1.90;;;25.60;99.80;;;;;;4990970;28;20172;-78
2022/07/12 10:40:12;;;;;;;2.45;2.10;;;25.40;99.60;;;;;;5022444;28;20051;-79
2022/07/12 10:43:04;;;;;;;2.40;1.85;;;25.30;99.60;;;;;;5011022;28;20041;-78
2022/07/12 10:45:38;;;;;;;3.85;2.10;;;25.30;99.80;;;;;;5010371;28;20443;-78
2022/07/12 10:48:12;;;;;;;1.98;1.77;;;25.10;98.70;;;;;;5001868;28;20033;-78
2022/07/12 10:51:00;;;;;;;2.75;1.80;;;25.00;99.20;;;;;;5001210;28;20044;-78
2022/07/12 10:53:29;;;;;;;2.88;1.70;;;24.90;99.70;;;;;;4998699;28;20041;-78
2022/07/12 10:56:04;;;;;;;2.03;1.70;;;24.80;99.90;;;;;;5024826;28;20065;-78
2022/07/12 10:58:36;;;;;;;1.67;1.50;;;24.90;99.50;;;;;;5023362;28;20044;-78
2022/07/12 11:01:07;;;;;;;2.15;1.80;;;25.00;99.90;;;;;;5029400;28;20127;-78
2022/07/12 11:03:57;;;;;;;2.08;1.80;;;25.10;99.50;;;;;;5020402;28;20095;-78
2022/07/12 11:06:26;;;;;;;2.03;1.80;;;25.10;97.90;;;;;;5001787;28;20034;-78
2022/07/12 11:09:04;;;;;;;2.20;2.00;;;25.10;98.80;;;;;;5023889;28;20044;-78
2022/07/12 11:11:35;;;;;;;2.80;1.70;;;25.30;99.00;;;;;;5023053;28;20044;-78
2022/07/12 11:14:01;;;;;;;2.35;1.80;;;25.40;99.40;;;;;;5020846;28;20035;-78
2022/07/12 11:16:29;;;;;;;2.10;1.80;;;25.60;99.30;;;;;;5026888;28;20036;-79
2022/07/12 11:18:55;;;;;;;2.53;1.75;;;25.60;99.10;;;;;;5021421;28;20049;-79
2022/07/12 11:21:22;;;;;;;2.35;1.40;;;25.70;99.10;;;;;;5010673;28;20037;-79
2022/07/12 11:23:48;;;;;;;1.73;1.40;;;25.80;98.60;;;;;;5018279;28;20033;-78
2022/07/12 11:26:15;;;;;;;2.47;1.50;;;25.90;98.00;;;;;;5031176;28;20075;-78
2022/07/12 11:28:42;;;;;;;1.85;1.55;;;25.90;98.30;;;;;;5022793;28;20065;-79
2022/07/12 11:31:17;;;;;;;2.50;1.65;;;25.90;97.70;;;;;;5026823;28;20037;-79
2022/07/12 11:33:46;;;;;;;2.65;1.60;;;25.90;97.40;;;;;;5005959;28;20103;-78
2022/07/12 11:36:13;;;;;;;2.90;1.50;;;25.80;97.40;;;;;;5028127;28;20097;-79
2022/07/12 11:38:41;;;;;;;2.35;1.58;;;25.80;97.80;;;;;;5007016;28;20029;-79
2022/07/12 11:41:07;;;;;;;4.70;1.63;;;25.60;98.10;;;;;;5018522;28;20041;-78
2022/07/12 11:43:36;;;;;;;1.50;1.40;;;25.60;98.10;;;;;;5026777;28;20041;-78
2022/07/12 11:46:03;;;;;;;3.60;1.10;;;25.60;98.00;;;;;;5032892;28;20025;-78
2022/07/12 11:48:32;;;;;;;3.50;1.50;;;25.60;97.60;;;;;;5010457;28;20045;-78
2022/07/12 11:51:05;;;;;;;2.85;1.10;;;25.60;97.70;;;;;;5019814;28;20115;-78
2022/07/12 11:53:32;;;;;;;1.20;1.10;;;25.80;96.80;;;;;;5016322;28;20075;-78
2022/07/12 11:55:59;;;;;;;1.77;1.10;;;25.90;96.60;;;;;;5029247;28;20102;-78
2022/07/12 11:58:26;;;;;;;0.95;0.93;;;26.00;95.70;;;;;;5029409;28;20500;-78
2022/07/12 12:00:53;;;;;;;2.30;0.98;;;26.10;95.90;;;;;;5009154;28;20105;-78
2022/07/12 12:03:20;;;;;;;2.03;0.80;;;26.20;95.40;;;;;;5021010;28;20053;-77
2022/07/12 12:05:54;;;;;;;1.17;0.90;;;26.30;95.00;;;;;;5002185;28;20378;-78
2022/07/12 12:08:21;;;;;;;1.20;1.15;;;26.40;94.10;;;;;;5037011;28;20032;-79
2022/07/12 12:10:58;;;;;;;1.90;1.10;;;26.60;93.70;;;;;;5002052;28;20421;-78
2022/07/12 12:13:28;;;;;;;5.78;1.10;;;26.60;93.40;;;;;;5020335;28;20570;-77
2022/07/12 12:16:02;;;;;;;1.20;1.10;;;26.60;94.20;;;;;;5020292;28;20048;-78
2022/07/12 12:18:34;;;;;;;1.35;1.00;;;26.70;93.50;;;;;;5037527;28;20063;-78
2022/07/12 12:21:06;;;;;;;1.00;1.00;;;26.80;92.90;;;;;;5027544;28;20041;-78
2022/07/12 12:23:33;;;;;;;1.65;0.90;;;26.90;92.10;;;;;;5015387;28;20136;-78
2022/07/12 12:26:13;;;;;;;2.97;1.10;;;26.90;92.90;;;;;;5013671;28;20064;-77
2022/07/12 12:28:42;;;;;;;2.45;1.30;;;27.10;92.40;;;;;;5018402;28;20040;-78
2022/07/12 12:31:09;;;;;;;1.02;1.00;;;27.20;92.40;;;;;;5012523;28;20068;-77
2022/07/12 12:33:49;;;;;;;1.05;1.05;;;27.20;93.00;;;;;;5015876;28;20049;-78
2022/07/12 12:36:29;;;;;;;2.30;1.00;;;27.30;91.60;;;;;;5034413;28;20045;-78
2022/07/12 12:38:57;;;;;;;1.33;1.23;;;27.30;91.20;;;;;;5013198;28;20049;-78
2022/07/12 12:41:25;;;;;;;3.35;1.10;;;27.30;91.30;;;;;;5011454;28;20037;-78
2022/07/12 12:44:02;;;;;;;2.38;1.15;;;27.30;91.10;;;;;;5015419;28;20037;-78
2022/07/12 12:47:39;;;;;;;1.10;1.05;;;27.40;90.00;;;;;;5011711;28;20037;-77
2022/07/12 12:49:44;;;;;;;1.63;1.20;;;27.40;90.50;;;;;;5005583;28;20041;-77
2022/07/12 12:52:09;;;;;;;2.00;0.90;;;27.40;90.20;;;;;;5014681;28;20070;-78
2022/07/12 12:54:37;;;;;;;1.20;1.10;;;27.60;90.70;;;;;;5022424;28;20390;-78
2022/07/12 12:57:05;;;;;;;1.50;1.20;;;27.70;89.20;;;;;;5004993;28;20067;-80
2022/07/12 12:59:31;;;;;;;1.65;1.17;;;27.70;88.10;;;;;;4999780;28;20048;-78
2022/07/12 13:01:57;;;;;;;1.27;1.10;;;27.60;86.20;;;;;;5005861;28;20793;-78
2022/07/12 13:04:26;;;;;;;1.35;1.25;;;27.50;85.20;;;;;;5000643;28;20041;-78
2022/07/12 13:06:52;;;;;;;2.38;1.08;;;27.30;85.30;;;;;;5019298;28;20036;-77